sensor_id;sensor_type;location;lat;lon;timestamp;P1;durP1;ratioP1;P2;durP2;ratioP2
58238;SDS011;44037;55.638;37.356;2023-01-26T00:01:06;15.25;;;7.72;;
58238;SDS011;44037;55.638;37.356;2023-01-26T00:03:34;16.65;;;8.05;;
58238;SDS011;44037;55.638;37.356;2023-01-26T00:06:02;18.15;;;9.32;;
58238;SDS011;44037;55.638;37.356;2023-01-26T00:08:29;18.85;;;9.43;;
58238;SDS011;44037;55.638;37.356;2023-01-26T00:11:01;19.73;;;10.30;;
58238;SDS011;44037;55.638;37.356;2023-01-26T00:13:29;17.00;;;9.23;;
58238;SDS011;44037;55.638;37.356;2023-01-26T00:15:57;15.48;;;7.43;;
58238;SDS011;44037;55.638;37.356;2023-01-26T00:18:24;18.38;;;8.88;;
58238;SDS011;44037;55.638;37.356;2023-01-26T00:20:54;16.20;;;7.25;;
58238;SDS011;44037;55.638;37.356;2023-01-26T00:23:22;19.40;;;10.23;;
58238;SDS011;44037;55.638;37.356;2023-01-26T00:25:50;17.65;;;7.55;;
58238;SDS011;44037;55.638;37.356;2023-01-26T00:28:19;17.75;;;8.30;;
58238;SDS011;44037;55.638;37.356;2023-01-26T00:30:46;17.10;;;8.95;;
58238;SDS011;44037;55.638;37.356;2023-01-26T00:33:14;16.70;;;8.95;;
58238;SDS011;44037;55.638;37.356;2023-01-26T00:35:41;16.63;;;9.02;;
58238;SDS011;44037;55.638;37.356;2023-01-26T00:38:09;17.42;;;8.18;;
58238;SDS011;44037;55.638;37.356;2023-01-26T00:40:36;17.98;;;7.78;;
58238;SDS011;44037;55.638;37.356;2023-01-26T00:43:03;18.42;;;8.10;;
58238;SDS011;44037;55.638;37.356;2023-01-26T00:45:32;17.58;;;7.68;;
58238;SDS011;44037;55.638;37.356;2023-01-26T00:48:00;20.00;;;9.07;;
58238;SDS011;44037;55.638;37.356;2023-01-26T00:50:27;19.52;;;8.95;;
58238;SDS011;44037;55.638;37.356;2023-01-26T00:52:54;17.85;;;8.77;;
58238;SDS011;44037;55.638;37.356;2023-01-26T00:55:21;16.55;;;7.50;;
58238;SDS011;44037;55.638;37.356;2023-01-26T00:57:48;16.10;;;7.93;;
58238;SDS011;44037;55.638;37.356;2023-01-26T01:00:15;14.38;;;7.57;;
58238;SDS011;44037;55.638;37.356;2023-01-26T01:02:45;18.52;;;8.13;;
58238;SDS011;44037;55.638;37.356;2023-01-26T01:05:12;16.50;;;7.72;;
58238;SDS011;44037;55.638;37.356;2023-01-26T01:07:39;16.67;;;8.70;;
58238;SDS011;44037;55.638;37.356;2023-01-26T01:10:07;19.58;;;9.77;;
58238;SDS011;44037;55.638;37.356;2023-01-26T01:12:35;15.60;;;7.75;;
58238;SDS011;44037;55.638;37.356;2023-01-26T01:15:02;15.68;;;8.00;;
58238;SDS011;44037;55.638;37.356;2023-01-26T01:17:30;17.52;;;8.02;;
58238;SDS011;44037;55.638;37.356;2023-01-26T01:19:59;13.98;;;7.07;;
58238;SDS011;44037;55.638;37.356;2023-01-26T01:22:28;14.52;;;6.90;;
58238;SDS011;44037;55.638;37.356;2023-01-26T01:24:55;15.40;;;9.13;;
58238;SDS011;44037;55.638;37.356;2023-01-26T01:27:22;16.63;;;8.18;;
58238;SDS011;44037;55.638;37.356;2023-01-26T01:29:49;15.18;;;7.93;;
58238;SDS011;44037;55.638;37.356;2023-01-26T01:32:17;11.50;;;6.45;;
58238;SDS011;44037;55.638;37.356;2023-01-26T01:34:45;13.13;;;6.40;;
58238;SDS011;44037;55.638;37.356;2023-01-26T01:37:14;14.65;;;6.88;;
58238;SDS011;44037;55.638;37.356;2023-01-26T01:39:41;14.15;;;7.47;;
58238;SDS011;44037;55.638;37.356;2023-01-26T01:42:09;16.35;;;7.13;;
58238;SDS011;44037;55.638;37.356;2023-01-26T01:44:36;15.70;;;7.28;;
58238;SDS011;44037;55.638;37.356;2023-01-26T01:47:04;13.48;;;6.70;;
58238;SDS011;44037;55.638;37.356;2023-01-26T01:49:36;15.63;;;7.03;;
58238;SDS011;44037;55.638;37.356;2023-01-26T01:52:07;12.63;;;6.75;;
58238;SDS011;44037;55.638;37.356;2023-01-26T01:54:40;15.55;;;7.72;;
58238;SDS011;44037;55.638;37.356;2023-01-26T01:57:13;12.85;;;6.78;;
58238;SDS011;44037;55.638;37.356;2023-01-26T01:59:54;15.35;;;7.50;;
58238;SDS011;44037;55.638;37.356;2023-01-26T02:02:26;15.63;;;8.40;;
58238;SDS011;44037;55.638;37.356;2023-01-26T02:04:54;13.82;;;6.68;;
58238;SDS011;44037;55.638;37.356;2023-01-26T02:07:26;16.40;;;7.18;;
58238;SDS011;44037;55.638;37.356;2023-01-26T02:09:55;17.42;;;8.77;;
58238;SDS011;44037;55.638;37.356;2023-01-26T02:12:46;13.20;;;6.25;;
58238;SDS011;44037;55.638;37.356;2023-01-26T02:15:16;15.32;;;7.35;;
58238;SDS011;44037;55.638;37.356;2023-01-26T02:17:43;14.35;;;7.55;;
58238;SDS011;44037;55.638;37.356;2023-01-26T02:20:13;14.95;;;7.10;;
58238;SDS011;44037;55.638;37.356;2023-01-26T02:22:46;14.90;;;7.65;;
58238;SDS011;44037;55.638;37.356;2023-01-26T02:25:24;12.43;;;7.30;;
58238;SDS011;44037;55.638;37.356;2023-01-26T02:28:01;14.40;;;6.93;;
58238;SDS011;44037;55.638;37.356;2023-01-26T02:30:28;14.95;;;7.82;;
58238;SDS011;44037;55.638;37.356;2023-01-26T02:32:56;15.52;;;7.13;;
58238;SDS011;44037;55.638;37.356;2023-01-26T02:35:23;16.70;;;8.05;;
58238;SDS011;44037;55.638;37.356;2023-01-26T02:37:50;17.20;;;7.43;;
58238;SDS011;44037;55.638;37.356;2023-01-26T02:40:20;15.57;;;7.60;;
58238;SDS011;44037;55.638;37.356;2023-01-26T02:42:55;14.63;;;6.80;;
58238;SDS011;44037;55.638;37.356;2023-01-26T02:45:23;15.57;;;9.20;;
58238;SDS011;44037;55.638;37.356;2023-01-26T02:47:51;15.07;;;8.45;;
58238;SDS011;44037;55.638;37.356;2023-01-26T02:50:18;17.73;;;9.10;;
58238;SDS011;44037;55.638;37.356;2023-01-26T02:52:44;16.48;;;8.25;;
58238;SDS011;44037;55.638;37.356;2023-01-26T02:55:12;19.17;;;8.52;;
58238;SDS011;44037;55.638;37.356;2023-01-26T02:57:47;17.65;;;8.70;;
58238;SDS011;44037;55.638;37.356;2023-01-26T03:00:15;18.60;;;9.63;;
58238;SDS011;44037;55.638;37.356;2023-01-26T03:02:44;13.20;;;7.47;;
58238;SDS011;44037;55.638;37.356;2023-01-26T03:05:12;18.45;;;8.18;;
58238;SDS011;44037;55.638;37.356;2023-01-26T03:07:40;17.60;;;8.35;;
58238;SDS011;44037;55.638;37.356;2023-01-26T03:10:07;16.90;;;8.85;;
58238;SDS011;44037;55.638;37.356;2023-01-26T03:12:35;17.80;;;9.93;;
58238;SDS011;44037;55.638;37.356;2023-01-26T03:15:03;17.80;;;9.93;;
58238;SDS011;44037;55.638;37.356;2023-01-26T03:17:49;17.40;;;10.43;;
58238;SDS011;44037;55.638;37.356;2023-01-26T03:20:37;18.20;;;9.45;;
58238;SDS011;44037;55.638;37.356;2023-01-26T03:23:24;14.02;;;7.30;;
58238;SDS011;44037;55.638;37.356;2023-01-26T03:26:08;15.45;;;8.90;;
58238;SDS011;44037;55.638;37.356;2023-01-26T03:28:53;20.30;;;10.23;;
58238;SDS011;44037;55.638;37.356;2023-01-26T03:31:20;13.45;;;7.88;;
58238;SDS011;44037;55.638;37.356;2023-01-26T03:33:49;14.70;;;8.30;;
58238;SDS011;44037;55.638;37.356;2023-01-26T03:36:16;13.77;;;6.75;;
58238;SDS011;44037;55.638;37.356;2023-01-26T03:38:43;17.88;;;9.15;;
58238;SDS011;44037;55.638;37.356;2023-01-26T03:41:11;15.35;;;8.88;;
58238;SDS011;44037;55.638;37.356;2023-01-26T03:43:56;13.35;;;7.75;;
58238;SDS011;44037;55.638;37.356;2023-01-26T03:46:40;16.33;;;8.30;;
58238;SDS011;44037;55.638;37.356;2023-01-26T03:49:26;16.63;;;9.45;;
58238;SDS011;44037;55.638;37.356;2023-01-26T03:52:10;16.37;;;8.27;;
58238;SDS011;44037;55.638;37.356;2023-01-26T03:54:55;20.92;;;9.00;;
58238;SDS011;44037;55.638;37.356;2023-01-26T03:57:39;15.88;;;7.70;;
58238;SDS011;44037;55.638;37.356;2023-01-26T04:00:07;16.88;;;9.35;;
58238;SDS011;44037;55.638;37.356;2023-01-26T04:02:34;20.30;;;9.88;;
58238;SDS011;44037;55.638;37.356;2023-01-26T04:05:20;15.40;;;9.45;;
58238;SDS011;44037;55.638;37.356;2023-01-26T04:08:05;18.27;;;9.00;;
58238;SDS011;44037;55.638;37.356;2023-01-26T04:10:51;15.80;;;8.88;;
58238;SDS011;44037;55.638;37.356;2023-01-26T04:13:19;15.75;;;9.65;;
58238;SDS011;44037;55.638;37.356;2023-01-26T04:16:05;17.15;;;8.30;;
58238;SDS011;44037;55.638;37.356;2023-01-26T04:18:50;18.33;;;9.98;;
58238;SDS011;44037;55.638;37.356;2023-01-26T04:21:36;18.27;;;8.82;;
58238;SDS011;44037;55.638;37.356;2023-01-26T04:24:04;17.45;;;9.55;;
58238;SDS011;44037;55.638;37.356;2023-01-26T04:26:34;20.95;;;9.55;;
58238;SDS011;44037;55.638;37.356;2023-01-26T04:29:03;17.42;;;9.45;;
58238;SDS011;44037;55.638;37.356;2023-01-26T04:31:32;17.60;;;9.35;;
58238;SDS011;44037;55.638;37.356;2023-01-26T04:34:00;18.60;;;8.65;;
58238;SDS011;44037;55.638;37.356;2023-01-26T04:36:28;15.27;;;8.63;;
58238;SDS011;44037;55.638;37.356;2023-01-26T04:38:57;17.17;;;8.02;;
58238;SDS011;44037;55.638;37.356;2023-01-26T04:41:24;16.67;;;9.32;;
58238;SDS011;44037;55.638;37.356;2023-01-26T04:43:51;16.63;;;9.20;;
58238;SDS011;44037;55.638;37.356;2023-01-26T04:46:18;16.08;;;9.27;;
58238;SDS011;44037;55.638;37.356;2023-01-26T04:48:45;18.55;;;10.15;;
58238;SDS011;44037;55.638;37.356;2023-01-26T04:51:13;18.02;;;8.95;;
58238;SDS011;44037;55.638;37.356;2023-01-26T04:53:47;19.17;;;9.98;;
58238;SDS011;44037;55.638;37.356;2023-01-26T04:56:27;18.65;;;8.27;;
58238;SDS011;44037;55.638;37.356;2023-01-26T04:58:57;19.88;;;10.07;;
58238;SDS011;44037;55.638;37.356;2023-01-26T05:01:25;17.35;;;8.77;;
58238;SDS011;44037;55.638;37.356;2023-01-26T05:03:52;19.67;;;10.80;;
58238;SDS011;44037;55.638;37.356;2023-01-26T05:06:29;18.35;;;10.77;;
58238;SDS011;44037;55.638;37.356;2023-01-26T05:09:02;19.77;;;10.05;;
58238;SDS011;44037;55.638;37.356;2023-01-26T05:11:31;18.77;;;10.30;;
58238;SDS011;44037;55.638;37.356;2023-01-26T05:14:02;19.08;;;9.02;;
58238;SDS011;44037;55.638;37.356;2023-01-26T05:16:29;18.27;;;8.75;;
58238;SDS011;44037;55.638;37.356;2023-01-26T05:18:56;17.33;;;9.15;;
58238;SDS011;44037;55.638;37.356;2023-01-26T05:21:24;16.58;;;8.45;;
58238;SDS011;44037;55.638;37.356;2023-01-26T05:23:52;17.27;;;10.32;;
58238;SDS011;44037;55.638;37.356;2023-01-26T05:26:20;19.65;;;10.50;;
58238;SDS011;44037;55.638;37.356;2023-01-26T05:28:49;16.83;;;9.82;;
58238;SDS011;44037;55.638;37.356;2023-01-26T05:31:17;18.52;;;8.60;;
58238;SDS011;44037;55.638;37.356;2023-01-26T05:33:44;23.30;;;10.30;;
58238;SDS011;44037;55.638;37.356;2023-01-26T05:36:15;18.23;;;9.02;;
58238;SDS011;44037;55.638;37.356;2023-01-26T05:38:42;19.98;;;9.65;;
58238;SDS011;44037;55.638;37.356;2023-01-26T05:41:11;17.90;;;10.00;;
58238;SDS011;44037;55.638;37.356;2023-01-26T05:43:38;16.33;;;9.02;;
58238;SDS011;44037;55.638;37.356;2023-01-26T05:46:07;16.80;;;9.95;;
58238;SDS011;44037;55.638;37.356;2023-01-26T05:48:34;16.50;;;8.95;;
58238;SDS011;44037;55.638;37.356;2023-01-26T05:51:01;16.15;;;8.15;;
58238;SDS011;44037;55.638;37.356;2023-01-26T05:53:34;18.00;;;9.55;;
58238;SDS011;44037;55.638;37.356;2023-01-26T05:56:09;21.15;;;10.32;;
58238;SDS011;44037;55.638;37.356;2023-01-26T05:58:42;17.67;;;8.75;;
58238;SDS011;44037;55.638;37.356;2023-01-26T06:01:11;22.73;;;9.57;;
58238;SDS011;44037;55.638;37.356;2023-01-26T06:03:39;15.68;;;9.05;;
58238;SDS011;44037;55.638;37.356;2023-01-26T06:06:06;19.23;;;9.40;;
58238;SDS011;44037;55.638;37.356;2023-01-26T06:08:35;18.33;;;9.02;;
58238;SDS011;44037;55.638;37.356;2023-01-26T06:11:06;17.20;;;9.38;;
58238;SDS011;44037;55.638;37.356;2023-01-26T06:13:40;15.63;;;8.90;;
58238;SDS011;44037;55.638;37.356;2023-01-26T06:16:07;19.58;;;10.63;;
58238;SDS011;44037;55.638;37.356;2023-01-26T06:18:36;23.02;;;11.93;;
58238;SDS011;44037;55.638;37.356;2023-01-26T06:21:04;22.60;;;11.13;;
58238;SDS011;44037;55.638;37.356;2023-01-26T06:23:32;15.23;;;8.63;;
58238;SDS011;44037;55.638;37.356;2023-01-26T06:26:01;24.27;;;11.13;;
58238;SDS011;44037;55.638;37.356;2023-01-26T06:28:48;19.38;;;9.60;;
58238;SDS011;44037;55.638;37.356;2023-01-26T06:31:16;17.08;;;9.57;;
58238;SDS011;44037;55.638;37.356;2023-01-26T06:33:45;20.50;;;11.00;;
58238;SDS011;44037;55.638;37.356;2023-01-26T06:36:14;19.10;;;9.82;;
58238;SDS011;44037;55.638;37.356;2023-01-26T06:38:44;16.05;;;9.40;;
58238;SDS011;44037;55.638;37.356;2023-01-26T06:41:11;16.42;;;8.32;;
58238;SDS011;44037;55.638;37.356;2023-01-26T06:43:39;20.73;;;10.32;;
58238;SDS011;44037;55.638;37.356;2023-01-26T06:46:12;19.85;;;8.73;;
58238;SDS011;44037;55.638;37.356;2023-01-26T06:48:40;16.48;;;8.95;;
58238;SDS011;44037;55.638;37.356;2023-01-26T06:54:00;16.35;;;8.82;;
58238;SDS011;44037;55.638;37.356;2023-01-26T06:56:27;18.73;;;10.75;;
58238;SDS011;44037;55.638;37.356;2023-01-26T06:58:55;18.17;;;10.07;;
58238;SDS011;44037;55.638;37.356;2023-01-26T07:01:24;15.75;;;8.23;;
58238;SDS011;44037;55.638;37.356;2023-01-26T07:03:53;18.20;;;10.48;;
58238;SDS011;44037;55.638;37.356;2023-01-26T07:06:20;19.45;;;10.43;;
58238;SDS011;44037;55.638;37.356;2023-01-26T07:08:47;16.52;;;8.43;;
58238;SDS011;44037;55.638;37.356;2023-01-26T07:11:16;14.27;;;8.77;;
58238;SDS011;44037;55.638;37.356;2023-01-26T07:13:44;14.20;;;7.93;;
58238;SDS011;44037;55.638;37.356;2023-01-26T07:16:12;21.65;;;9.65;;
58238;SDS011;44037;55.638;37.356;2023-01-26T07:18:40;14.63;;;9.35;;
58238;SDS011;44037;55.638;37.356;2023-01-26T07:21:08;16.35;;;8.55;;
58238;SDS011;44037;55.638;37.356;2023-01-26T07:23:37;13.82;;;7.90;;
58238;SDS011;44037;55.638;37.356;2023-01-26T07:26:04;19.15;;;9.77;;
58238;SDS011;44037;55.638;37.356;2023-01-26T07:28:33;16.25;;;8.57;;
58238;SDS011;44037;55.638;37.356;2023-01-26T07:31:00;13.52;;;8.10;;
58238;SDS011;44037;55.638;37.356;2023-01-26T07:33:28;14.95;;;8.93;;
58238;SDS011;44037;55.638;37.356;2023-01-26T07:35:56;14.77;;;8.55;;
58238;SDS011;44037;55.638;37.356;2023-01-26T07:38:24;14.75;;;8.52;;
58238;SDS011;44037;55.638;37.356;2023-01-26T07:40:53;16.38;;;8.27;;
58238;SDS011;44037;55.638;37.356;2023-01-26T07:43:21;13.57;;;6.95;;
58238;SDS011;44037;55.638;37.356;2023-01-26T07:45:59;13.02;;;6.80;;
58238;SDS011;44037;55.638;37.356;2023-01-26T07:48:29;12.90;;;7.60;;
58238;SDS011;44037;55.638;37.356;2023-01-26T07:50:57;13.85;;;7.63;;
58238;SDS011;44037;55.638;37.356;2023-01-26T07:53:25;16.10;;;8.15;;
58238;SDS011;44037;55.638;37.356;2023-01-26T07:55:54;14.13;;;8.32;;
58238;SDS011;44037;55.638;37.356;2023-01-26T07:58:31;14.85;;;7.68;;
58238;SDS011;44037;55.638;37.356;2023-01-26T08:01:05;14.52;;;7.47;;
58238;SDS011;44037;55.638;37.356;2023-01-26T08:03:35;12.52;;;6.65;;
58238;SDS011;44037;55.638;37.356;2023-01-26T08:06:06;12.77;;;7.50;;
58238;SDS011;44037;55.638;37.356;2023-01-26T08:08:42;11.95;;;7.03;;
58238;SDS011;44037;55.638;37.356;2023-01-26T08:11:09;12.57;;;6.85;;
58238;SDS011;44037;55.638;37.356;2023-01-26T08:13:37;14.65;;;7.07;;
58238;SDS011;44037;55.638;37.356;2023-01-26T08:16:10;11.00;;;7.10;;
58238;SDS011;44037;55.638;37.356;2023-01-26T08:18:40;13.15;;;7.65;;
58238;SDS011;44037;55.638;37.356;2023-01-26T08:21:12;17.25;;;9.05;;
58238;SDS011;44037;55.638;37.356;2023-01-26T08:26:18;15.20;;;8.65;;
58238;SDS011;44037;55.638;37.356;2023-01-26T08:28:46;14.07;;;7.50;;
58238;SDS011;44037;55.638;37.356;2023-01-26T08:31:19;12.27;;;6.15;;
58238;SDS011;44037;55.638;37.356;2023-01-26T08:33:51;11.35;;;6.40;;
58238;SDS011;44037;55.638;37.356;2023-01-26T08:36:21;12.80;;;6.78;;
58238;SDS011;44037;55.638;37.356;2023-01-26T08:38:49;11.40;;;6.93;;
58238;SDS011;44037;55.638;37.356;2023-01-26T08:41:19;12.05;;;6.57;;
58238;SDS011;44037;55.638;37.356;2023-01-26T08:43:46;23.15;;;12.50;;
58238;SDS011;44037;55.638;37.356;2023-01-26T08:46:13;14.05;;;6.95;;
58238;SDS011;44037;55.638;37.356;2023-01-26T08:48:42;14.07;;;8.10;;
58238;SDS011;44037;55.638;37.356;2023-01-26T08:51:09;14.75;;;7.90;;
58238;SDS011;44037;55.638;37.356;2023-01-26T08:53:36;13.98;;;7.35;;
58238;SDS011;44037;55.638;37.356;2023-01-26T08:56:06;11.65;;;7.45;;
58238;SDS011;44037;55.638;37.356;2023-01-26T08:58:38;13.40;;;7.05;;
58238;SDS011;44037;55.638;37.356;2023-01-26T09:01:06;9.75;;;5.95;;
58238;SDS011;44037;55.638;37.356;2023-01-26T09:03:39;10.15;;;6.65;;
58238;SDS011;44037;55.638;37.356;2023-01-26T09:06:13;11.68;;;6.45;;
58238;SDS011;44037;55.638;37.356;2023-01-26T09:08:40;11.10;;;6.38;;
58238;SDS011;44037;55.638;37.356;2023-01-26T09:11:08;14.02;;;7.60;;
58238;SDS011;44037;55.638;37.356;2023-01-26T09:13:38;14.32;;;7.22;;
58238;SDS011;44037;55.638;37.356;2023-01-26T09:16:12;12.68;;;7.10;;
58238;SDS011;44037;55.638;37.356;2023-01-26T09:18:47;13.27;;;7.00;;
58238;SDS011;44037;55.638;37.356;2023-01-26T09:21:21;14.18;;;7.28;;
58238;SDS011;44037;55.638;37.356;2023-01-26T09:23:54;11.80;;;7.00;;
58238;SDS011;44037;55.638;37.356;2023-01-26T09:26:27;13.32;;;7.65;;
58238;SDS011;44037;55.638;37.356;2023-01-26T09:29:09;11.38;;;5.88;;
58238;SDS011;44037;55.638;37.356;2023-01-26T09:31:36;13.43;;;7.07;;
58238;SDS011;44037;55.638;37.356;2023-01-26T09:34:16;12.45;;;7.18;;
58238;SDS011;44037;55.638;37.356;2023-01-26T09:36:44;12.10;;;7.45;;
58238;SDS011;44037;55.638;37.356;2023-01-26T09:39:34;13.80;;;6.68;;
58238;SDS011;44037;55.638;37.356;2023-01-26T09:42:10;11.18;;;6.55;;
58238;SDS011;44037;55.638;37.356;2023-01-26T09:44:54;10.98;;;6.53;;
58238;SDS011;44037;55.638;37.356;2023-01-26T09:47:30;16.52;;;8.43;;
58238;SDS011;44037;55.638;37.356;2023-01-26T09:50:07;13.60;;;7.30;;
58238;SDS011;44037;55.638;37.356;2023-01-26T09:52:41;13.13;;;6.75;;
58238;SDS011;44037;55.638;37.356;2023-01-26T09:55:16;11.45;;;7.65;;
58238;SDS011;44037;55.638;37.356;2023-01-26T09:57:47;14.10;;;7.82;;
58238;SDS011;44037;55.638;37.356;2023-01-26T10:00:18;11.85;;;6.85;;
58238;SDS011;44037;55.638;37.356;2023-01-26T10:02:54;13.35;;;7.50;;
58238;SDS011;44037;55.638;37.356;2023-01-26T10:05:46;14.20;;;8.07;;
58238;SDS011;44037;55.638;37.356;2023-01-26T10:08:19;11.43;;;6.85;;
58238;SDS011;44037;55.638;37.356;2023-01-26T10:10:51;12.25;;;6.72;;
58238;SDS011;44037;55.638;37.356;2023-01-26T10:13:19;13.38;;;6.75;;
58238;SDS011;44037;55.638;37.356;2023-01-26T10:15:49;13.00;;;7.88;;
58238;SDS011;44037;55.638;37.356;2023-01-26T10:18:20;14.27;;;7.55;;
58238;SDS011;44037;55.638;37.356;2023-01-26T10:20:53;11.23;;;6.47;;
58238;SDS011;44037;55.638;37.356;2023-01-26T10:23:26;12.88;;;7.88;;
58238;SDS011;44037;55.638;37.356;2023-01-26T10:25:55;17.55;;;7.82;;
58238;SDS011;44037;55.638;37.356;2023-01-26T10:28:31;11.60;;;6.30;;
58238;SDS011;44037;55.638;37.356;2023-01-26T10:31:01;12.80;;;7.25;;
58238;SDS011;44037;55.638;37.356;2023-01-26T10:33:30;13.38;;;6.85;;
58238;SDS011;44037;55.638;37.356;2023-01-26T10:35:59;15.60;;;7.05;;
58238;SDS011;44037;55.638;37.356;2023-01-26T10:41:22;12.18;;;6.15;;
58238;SDS011;44037;55.638;37.356;2023-01-26T10:43:54;11.48;;;6.78;;
58238;SDS011;44037;55.638;37.356;2023-01-26T10:46:24;13.38;;;7.15;;
58238;SDS011;44037;55.638;37.356;2023-01-26T10:48:56;14.02;;;7.07;;
58238;SDS011;44037;55.638;37.356;2023-01-26T10:51:33;12.82;;;6.88;;
58238;SDS011;44037;55.638;37.356;2023-01-26T10:54:21;14.95;;;8.45;;
58238;SDS011;44037;55.638;37.356;2023-01-26T10:56:50;12.10;;;8.13;;
58238;SDS011;44037;55.638;37.356;2023-01-26T10:59:22;17.98;;;7.93;;
58238;SDS011;44037;55.638;37.356;2023-01-26T11:01:54;15.98;;;8.32;;
58238;SDS011;44037;55.638;37.356;2023-01-26T11:04:25;16.33;;;7.45;;
58238;SDS011;44037;55.638;37.356;2023-01-26T11:09:52;13.02;;;7.50;;
58238;SDS011;44037;55.638;37.356;2023-01-26T11:12:23;12.75;;;7.93;;
58238;SDS011;44037;55.638;37.356;2023-01-26T11:14:58;16.60;;;7.40;;
58238;SDS011;44037;55.638;37.356;2023-01-26T11:17:35;22.00;;;11.15;;
58238;SDS011;44037;55.638;37.356;2023-01-26T11:20:11;15.43;;;8.45;;
58238;SDS011;44037;55.638;37.356;2023-01-26T11:23:02;32.47;;;16.30;;
58238;SDS011;44037;55.638;37.356;2023-01-26T11:25:37;22.52;;;11.63;;
58238;SDS011;44037;55.638;37.356;2023-01-26T11:28:19;17.77;;;8.85;;
58238;SDS011;44037;55.638;37.356;2023-01-26T11:31:08;16.08;;;7.55;;
58238;SDS011;44037;55.638;37.356;2023-01-26T11:33:44;16.27;;;8.30;;
58238;SDS011;44037;55.638;37.356;2023-01-26T11:36:25;12.90;;;8.05;;
58238;SDS011;44037;55.638;37.356;2023-01-26T11:39:01;15.85;;;8.32;;
58238;SDS011;44037;55.638;37.356;2023-01-26T11:41:45;15.13;;;7.93;;
58238;SDS011;44037;55.638;37.356;2023-01-26T11:44:43;17.60;;;8.00;;
58238;SDS011;44037;55.638;37.356;2023-01-26T11:47:21;20.08;;;9.23;;
58238;SDS011;44037;55.638;37.356;2023-01-26T11:52:55;21.65;;;10.00;;
58238;SDS011;44037;55.638;37.356;2023-01-26T11:55:36;19.60;;;9.40;;
58238;SDS011;44037;55.638;37.356;2023-01-26T11:58:18;19.73;;;9.27;;
58238;SDS011;44037;55.638;37.356;2023-01-26T12:00:54;17.67;;;8.80;;
58238;SDS011;44037;55.638;37.356;2023-01-26T12:03:24;21.40;;;8.68;;
58238;SDS011;44037;55.638;37.356;2023-01-26T12:05:57;20.17;;;10.07;;
58238;SDS011;44037;55.638;37.356;2023-01-26T12:08:30;16.90;;;10.23;;
58238;SDS011;44037;55.638;37.356;2023-01-26T12:11:05;19.17;;;10.63;;
58238;SDS011;44037;55.638;37.356;2023-01-26T12:13:54;14.98;;;8.73;;
58238;SDS011;44037;55.638;37.356;2023-01-26T12:16:37;18.15;;;9.48;;
58238;SDS011;44037;55.638;37.356;2023-01-26T12:19:15;18.67;;;10.00;;
58238;SDS011;44037;55.638;37.356;2023-01-26T12:21:59;14.43;;;8.32;;
58238;SDS011;44037;55.638;37.356;2023-01-26T12:24:37;19.48;;;9.57;;
58238;SDS011;44037;55.638;37.356;2023-01-26T12:27:10;18.15;;;9.93;;
58238;SDS011;44037;55.638;37.356;2023-01-26T12:29:47;19.98;;;9.90;;
58238;SDS011;44037;55.638;37.356;2023-01-26T12:32:22;19.48;;;10.65;;
58238;SDS011;44037;55.638;37.356;2023-01-26T12:34:52;20.25;;;11.23;;
58238;SDS011;44037;55.638;37.356;2023-01-26T12:37:32;19.73;;;8.43;;
58238;SDS011;44037;55.638;37.356;2023-01-26T12:40:15;16.00;;;8.98;;
58238;SDS011;44037;55.638;37.356;2023-01-26T12:42:54;20.92;;;10.73;;
58238;SDS011;44037;55.638;37.356;2023-01-26T12:45:33;28.38;;;15.10;;
58238;SDS011;44037;55.638;37.356;2023-01-26T12:48:06;21.48;;;10.48;;
58238;SDS011;44037;55.638;37.356;2023-01-26T12:50:39;19.00;;;10.52;;
58238;SDS011;44037;55.638;37.356;2023-01-26T12:53:13;25.80;;;11.82;;
58238;SDS011;44037;55.638;37.356;2023-01-26T12:55:55;24.10;;;11.02;;
58238;SDS011;44037;55.638;37.356;2023-01-26T12:58:32;18.00;;;10.60;;
58238;SDS011;44037;55.638;37.356;2023-01-26T13:01:04;20.05;;;11.40;;
58238;SDS011;44037;55.638;37.356;2023-01-26T13:03:35;21.38;;;11.05;;
58238;SDS011;44037;55.638;37.356;2023-01-26T13:06:18;18.90;;;9.32;;
58238;SDS011;44037;55.638;37.356;2023-01-26T13:08:59;21.60;;;11.63;;
58238;SDS011;44037;55.638;37.356;2023-01-26T13:11:42;21.35;;;11.30;;
58238;SDS011;44037;55.638;37.356;2023-01-26T13:14:30;18.55;;;8.85;;
58238;SDS011;44037;55.638;37.356;2023-01-26T13:26:12;25.45;;;12.52;;
58238;SDS011;44037;55.638;37.356;2023-01-26T13:28:41;21.38;;;11.77;;
58238;SDS011;44037;55.638;37.356;2023-01-26T13:31:10;18.88;;;9.95;;
58238;SDS011;44037;55.638;37.356;2023-01-26T13:33:37;23.75;;;12.57;;
58238;SDS011;44037;55.638;37.356;2023-01-26T13:36:11;24.58;;;12.98;;
58238;SDS011;44037;55.638;37.356;2023-01-26T13:38:42;26.17;;;13.23;;
58238;SDS011;44037;55.638;37.356;2023-01-26T13:41:17;18.45;;;9.20;;
58238;SDS011;44037;55.638;37.356;2023-01-26T13:43:45;27.35;;;13.25;;
58238;SDS011;44037;55.638;37.356;2023-01-26T13:46:18;28.10;;;14.90;;
58238;SDS011;44037;55.638;37.356;2023-01-26T13:48:49;21.77;;;11.27;;
58238;SDS011;44037;55.638;37.356;2023-01-26T13:51:19;22.25;;;12.48;;
58238;SDS011;44037;55.638;37.356;2023-01-26T13:53:54;22.10;;;11.25;;
58238;SDS011;44037;55.638;37.356;2023-01-26T13:56:26;20.17;;;10.30;;
58238;SDS011;44037;55.638;37.356;2023-01-26T13:59:05;20.60;;;10.00;;
58238;SDS011;44037;55.638;37.356;2023-01-26T14:01:42;21.80;;;11.40;;
58238;SDS011;44037;55.638;37.356;2023-01-26T14:04:14;17.27;;;9.88;;
58238;SDS011;44037;55.638;37.356;2023-01-26T14:06:44;20.60;;;10.20;;
58238;SDS011;44037;55.638;37.356;2023-01-26T14:09:15;17.67;;;9.85;;
58238;SDS011;44037;55.638;37.356;2023-01-26T14:11:46;20.20;;;10.98;;
58238;SDS011;44037;55.638;37.356;2023-01-26T14:14:25;20.80;;;10.68;;
58238;SDS011;44037;55.638;37.356;2023-01-26T14:16:55;17.35;;;10.13;;
58238;SDS011;44037;55.638;37.356;2023-01-26T14:19:23;21.02;;;10.95;;
58238;SDS011;44037;55.638;37.356;2023-01-26T14:21:53;17.52;;;10.10;;
58238;SDS011;44037;55.638;37.356;2023-01-26T14:24:24;18.75;;;11.02;;
58238;SDS011;44037;55.638;37.356;2023-01-26T14:26:59;16.92;;;8.65;;
58238;SDS011;44037;55.638;37.356;2023-01-26T14:29:28;20.30;;;10.35;;
58238;SDS011;44037;55.638;37.356;2023-01-26T14:31:56;18.20;;;10.73;;
58238;SDS011;44037;55.638;37.356;2023-01-26T14:34:25;18.50;;;10.13;;
58238;SDS011;44037;55.638;37.356;2023-01-26T14:37:05;16.83;;;9.25;;
58238;SDS011;44037;55.638;37.356;2023-01-26T14:39:33;20.25;;;10.55;;
58238;SDS011;44037;55.638;37.356;2023-01-26T14:42:00;16.98;;;9.13;;
58238;SDS011;44037;55.638;37.356;2023-01-26T14:44:28;18.13;;;9.52;;
58238;SDS011;44037;55.638;37.356;2023-01-26T14:46:57;17.83;;;9.02;;
58238;SDS011;44037;55.638;37.356;2023-01-26T14:49:31;18.38;;;9.98;;
58238;SDS011;44037;55.638;37.356;2023-01-26T14:52:14;13.77;;;9.25;;
58238;SDS011;44037;55.638;37.356;2023-01-26T14:54:50;25.95;;;11.98;;
58238;SDS011;44037;55.638;37.356;2023-01-26T14:57:20;17.50;;;9.13;;
58238;SDS011;44037;55.638;37.356;2023-01-26T14:59:54;16.92;;;8.90;;
58238;SDS011;44037;55.638;37.356;2023-01-26T15:02:26;16.98;;;8.70;;
58238;SDS011;44037;55.638;37.356;2023-01-26T15:05:08;17.10;;;8.60;;
58238;SDS011;44037;55.638;37.356;2023-01-26T15:07:41;17.45;;;9.93;;
58238;SDS011;44037;55.638;37.356;2023-01-26T15:10:30;19.60;;;10.77;;